<?xml version="1.0" encoding="UTF-8"?>
<gpx version="1.0" creator="RoadTrp.org (reconstructed from published track)" xmlns="http://www.topografix.com/GPX/1/0">
<name>Plateau Point Hike — June 9, 2014</name>
<trk><name>Plateau Point Hike</name><trkseg>
<trkpt lat="36.057350" lon="-112.141563"><ele>2094.0</ele><time>2014-06-09T15:31:02Z</time></trkpt>
<trkpt lat="36.057755" lon="-112.141534"><ele>2095.8</ele><time>2014-06-09T15:32:06Z</time></trkpt>
<trkpt lat="36.057939" lon="-112.142257"><ele>2089.1</ele><time>2014-06-09T15:33:10Z</time></trkpt>
<trkpt lat="36.057768" lon="-112.143057"><ele>2084.5</ele><time>2014-06-09T15:34:14Z</time></trkpt>
<trkpt lat="36.057178" lon="-112.143438"><ele>2089.1</ele><time>2014-06-09T15:35:18Z</time></trkpt>
<trkpt lat="36.057186" lon="-112.143438"><ele>2089.4</ele><time>2014-06-09T15:36:22Z</time></trkpt>
<trkpt lat="36.057187" lon="-112.143437"><ele>2089.4</ele><time>2014-06-09T15:37:26Z</time></trkpt>
<trkpt lat="36.057522" lon="-112.143113"><ele>2089.4</ele><time>2014-06-09T15:38:30Z</time></trkpt>
<trkpt lat="36.057905" lon="-112.142540"><ele>2086.7</ele><time>2014-06-09T15:39:34Z</time></trkpt>
<trkpt lat="36.057857" lon="-112.143030"><ele>2078.1</ele><time>2014-06-09T15:40:38Z</time></trkpt>
<trkpt lat="36.057679" lon="-112.143206"><ele>2064.4</ele><time>2014-06-09T15:41:42Z</time></trkpt>
<trkpt lat="36.057519" lon="-112.143977"><ele>2049.5</ele><time>2014-06-09T15:42:46Z</time></trkpt>
<trkpt lat="36.057725" lon="-112.144976"><ele>2047.3</ele><time>2014-06-09T15:43:50Z</time></trkpt>
<trkpt lat="36.057673" lon="-112.145693"><ele>2051.9</ele><time>2014-06-09T15:44:54Z</time></trkpt>
<trkpt lat="36.058040" lon="-112.146484"><ele>2047.3</ele><time>2014-06-09T15:45:58Z</time></trkpt>
<trkpt lat="36.058687" lon="-112.146463"><ele>2042.2</ele><time>2014-06-09T15:47:02Z</time></trkpt>
<trkpt lat="36.058605" lon="-112.146423"><ele>2022.3</ele><time>2014-06-09T15:48:06Z</time></trkpt>
<trkpt lat="36.058090" lon="-112.146078"><ele>2004.4</ele><time>2014-06-09T15:49:10Z</time></trkpt>
<trkpt lat="36.057962" lon="-112.145279"><ele>1978.8</ele><time>2014-06-09T15:50:14Z</time></trkpt>
<trkpt lat="36.058102" lon="-112.144447"><ele>1955.3</ele><time>2014-06-09T15:51:18Z</time></trkpt>
<trkpt lat="36.058504" lon="-112.143830"><ele>1936.4</ele><time>2014-06-09T15:52:22Z</time></trkpt>
<trkpt lat="36.058926" lon="-112.143430"><ele>1926.9</ele><time>2014-06-09T15:53:26Z</time></trkpt>
<trkpt lat="36.059003" lon="-112.142797"><ele>1915.4</ele><time>2014-06-09T15:54:30Z</time></trkpt>
<trkpt lat="36.059006" lon="-112.143089"><ele>1899.8</ele><time>2014-06-09T15:55:34Z</time></trkpt>
<trkpt lat="36.058953" lon="-112.143740"><ele>1875.7</ele><time>2014-06-09T15:56:38Z</time></trkpt>
<trkpt lat="36.059080" lon="-112.144209"><ele>1865.7</ele><time>2014-06-09T15:57:42Z</time></trkpt>
<trkpt lat="36.058829" lon="-112.144332"><ele>1865.1</ele><time>2014-06-09T15:58:46Z</time></trkpt>
<trkpt lat="36.059153" lon="-112.143837"><ele>1859.6</ele><time>2014-06-09T15:59:50Z</time></trkpt>
<trkpt lat="36.059248" lon="-112.143435"><ele>1851.4</ele><time>2014-06-09T16:00:54Z</time></trkpt>
<trkpt lat="36.059341" lon="-112.143306"><ele>1847.7</ele><time>2014-06-09T16:01:58Z</time></trkpt>
<trkpt lat="36.059477" lon="-112.143038"><ele>1848.3</ele><time>2014-06-09T16:03:02Z</time></trkpt>
<trkpt lat="36.059573" lon="-112.143113"><ele>1851.1</ele><time>2014-06-09T16:04:06Z</time></trkpt>
<trkpt lat="36.059712" lon="-112.143033"><ele>1842.8</ele><time>2014-06-09T16:05:10Z</time></trkpt>
<trkpt lat="36.060250" lon="-112.143248"><ele>1834.3</ele><time>2014-06-09T16:06:14Z</time></trkpt>
<trkpt lat="36.060348" lon="-112.142781"><ele>1829.1</ele><time>2014-06-09T16:07:18Z</time></trkpt>
<trkpt lat="36.060658" lon="-112.142453"><ele>1814.5</ele><time>2014-06-09T16:08:22Z</time></trkpt>
<trkpt lat="36.060925" lon="-112.141810"><ele>1796.5</ele><time>2014-06-09T16:09:26Z</time></trkpt>
<trkpt lat="36.060874" lon="-112.140817"><ele>1775.8</ele><time>2014-06-09T16:10:30Z</time></trkpt>
<trkpt lat="36.061429" lon="-112.140452"><ele>1760.2</ele><time>2014-06-09T16:11:34Z</time></trkpt>
<trkpt lat="36.061050" lon="-112.139492"><ele>1751.4</ele><time>2014-06-09T16:12:38Z</time></trkpt>
<trkpt lat="36.060613" lon="-112.138864"><ele>1742.5</ele><time>2014-06-09T16:13:42Z</time></trkpt>
<trkpt lat="36.060739" lon="-112.139138"><ele>1729.7</ele><time>2014-06-09T16:14:46Z</time></trkpt>
<trkpt lat="36.061246" lon="-112.139524"><ele>1716.0</ele><time>2014-06-09T16:15:50Z</time></trkpt>
<trkpt lat="36.060796" lon="-112.140529"><ele>1704.7</ele><time>2014-06-09T16:16:54Z</time></trkpt>
<trkpt lat="36.061022" lon="-112.141100"><ele>1670.0</ele><time>2014-06-09T16:17:58Z</time></trkpt>
<trkpt lat="36.060643" lon="-112.141788"><ele>1633.4</ele><time>2014-06-09T16:19:02Z</time></trkpt>
<trkpt lat="36.060063" lon="-112.143158"><ele>1632.2</ele><time>2014-06-09T16:20:06Z</time></trkpt>
<trkpt lat="36.060646" lon="-112.142895"><ele>1617.3</ele><time>2014-06-09T16:21:10Z</time></trkpt>
<trkpt lat="36.061546" lon="-112.142640"><ele>1593.5</ele><time>2014-06-09T16:22:14Z</time></trkpt>
<trkpt lat="36.061365" lon="-112.142550"><ele>1575.8</ele><time>2014-06-09T16:23:18Z</time></trkpt>
<trkpt lat="36.060666" lon="-112.142408"><ele>1567.3</ele><time>2014-06-09T16:24:22Z</time></trkpt>
<trkpt lat="36.060202" lon="-112.142595"><ele>1559.1</ele><time>2014-06-09T16:25:26Z</time></trkpt>
<trkpt lat="36.060334" lon="-112.142538"><ele>1557.5</ele><time>2014-06-09T16:26:30Z</time></trkpt>
<trkpt lat="36.060445" lon="-112.142482"><ele>1560.9</ele><time>2014-06-09T16:27:34Z</time></trkpt>
<trkpt lat="36.060696" lon="-112.142314"><ele>1560.9</ele><time>2014-06-09T16:28:38Z</time></trkpt>
<trkpt lat="36.060812" lon="-112.142375"><ele>1561.8</ele><time>2014-06-09T16:29:42Z</time></trkpt>
<trkpt lat="36.060874" lon="-112.142343"><ele>1562.4</ele><time>2014-06-09T16:30:46Z</time></trkpt>
<trkpt lat="36.060882" lon="-112.142342"><ele>1562.7</ele><time>2014-06-09T16:31:50Z</time></trkpt>
<trkpt lat="36.060921" lon="-112.142319"><ele>1562.4</ele><time>2014-06-09T16:32:54Z</time></trkpt>
<trkpt lat="36.061008" lon="-112.142238"><ele>1562.1</ele><time>2014-06-09T16:33:58Z</time></trkpt>
<trkpt lat="36.060992" lon="-112.141699"><ele>1562.1</ele><time>2014-06-09T16:35:02Z</time></trkpt>
<trkpt lat="36.061202" lon="-112.140865"><ele>1562.1</ele><time>2014-06-09T16:36:06Z</time></trkpt>
<trkpt lat="36.061471" lon="-112.140090"><ele>1562.4</ele><time>2014-06-09T16:37:10Z</time></trkpt>
<trkpt lat="36.061888" lon="-112.139722"><ele>1553.6</ele><time>2014-06-09T16:38:14Z</time></trkpt>
<trkpt lat="36.062212" lon="-112.140389"><ele>1553.9</ele><time>2014-06-09T16:39:18Z</time></trkpt>
<trkpt lat="36.062420" lon="-112.140055"><ele>1561.2</ele><time>2014-06-09T16:40:22Z</time></trkpt>
<trkpt lat="36.063047" lon="-112.139901"><ele>1572.8</ele><time>2014-06-09T16:41:26Z</time></trkpt>
<trkpt lat="36.062852" lon="-112.139670"><ele>1575.5</ele><time>2014-06-09T16:42:30Z</time></trkpt>
<trkpt lat="36.063007" lon="-112.140243"><ele>1570.3</ele><time>2014-06-09T16:43:34Z</time></trkpt>
<trkpt lat="36.063094" lon="-112.139571"><ele>1570.3</ele><time>2014-06-09T16:44:38Z</time></trkpt>
<trkpt lat="36.063485" lon="-112.139053"><ele>1566.1</ele><time>2014-06-09T16:45:42Z</time></trkpt>
<trkpt lat="36.063965" lon="-112.138345"><ele>1572.5</ele><time>2014-06-09T16:46:46Z</time></trkpt>
<trkpt lat="36.064127" lon="-112.138581"><ele>1570.3</ele><time>2014-06-09T16:47:50Z</time></trkpt>
<trkpt lat="36.064536" lon="-112.138060"><ele>1571.9</ele><time>2014-06-09T16:48:54Z</time></trkpt>
<trkpt lat="36.064473" lon="-112.137926"><ele>1576.7</ele><time>2014-06-09T16:49:58Z</time></trkpt>
<trkpt lat="36.064827" lon="-112.138359"><ele>1578.3</ele><time>2014-06-09T16:51:02Z</time></trkpt>
<trkpt lat="36.065099" lon="-112.137564"><ele>1583.4</ele><time>2014-06-09T16:52:06Z</time></trkpt>
<trkpt lat="36.065229" lon="-112.136674"><ele>1603.6</ele><time>2014-06-09T16:53:10Z</time></trkpt>
<trkpt lat="36.065755" lon="-112.136105"><ele>1616.0</ele><time>2014-06-09T16:54:14Z</time></trkpt>
<trkpt lat="36.066135" lon="-112.136144"><ele>1623.1</ele><time>2014-06-09T16:55:18Z</time></trkpt>
<trkpt lat="36.065456" lon="-112.136668"><ele>1635.9</ele><time>2014-06-09T16:56:22Z</time></trkpt>
<trkpt lat="36.066119" lon="-112.136194"><ele>1644.1</ele><time>2014-06-09T16:57:26Z</time></trkpt>
<trkpt lat="36.066238" lon="-112.136235"><ele>1650.5</ele><time>2014-06-09T16:58:30Z</time></trkpt>
<trkpt lat="36.065889" lon="-112.136694"><ele>1653.8</ele><time>2014-06-09T16:59:34Z</time></trkpt>
<trkpt lat="36.066164" lon="-112.136671"><ele>1653.5</ele><time>2014-06-09T17:00:38Z</time></trkpt>
<trkpt lat="36.066501" lon="-112.136797"><ele>1653.5</ele><time>2014-06-09T17:01:42Z</time></trkpt>
<trkpt lat="36.066630" lon="-112.136444"><ele>1654.1</ele><time>2014-06-09T17:02:46Z</time></trkpt>
<trkpt lat="36.066795" lon="-112.136118"><ele>1655.1</ele><time>2014-06-09T17:03:50Z</time></trkpt>
<trkpt lat="36.067029" lon="-112.136233"><ele>1656.6</ele><time>2014-06-09T17:04:54Z</time></trkpt>
<trkpt lat="36.067563" lon="-112.135598"><ele>1653.8</ele><time>2014-06-09T17:05:58Z</time></trkpt>
<trkpt lat="36.067966" lon="-112.134706"><ele>1648.7</ele><time>2014-06-09T17:07:02Z</time></trkpt>
<trkpt lat="36.068234" lon="-112.133862"><ele>1651.4</ele><time>2014-06-09T17:08:06Z</time></trkpt>
<trkpt lat="36.068198" lon="-112.133355"><ele>1652.0</ele><time>2014-06-09T17:09:10Z</time></trkpt>
<trkpt lat="36.067855" lon="-112.132849"><ele>1653.5</ele><time>2014-06-09T17:10:14Z</time></trkpt>
<trkpt lat="36.068385" lon="-112.132722"><ele>1649.9</ele><time>2014-06-09T17:11:18Z</time></trkpt>
<trkpt lat="36.069605" lon="-112.134492"><ele>1534.1</ele><time>2014-06-09T17:12:22Z</time></trkpt>
<trkpt lat="36.069790" lon="-112.133987"><ele>1519.4</ele><time>2014-06-09T17:13:26Z</time></trkpt>
<trkpt lat="36.070332" lon="-112.133406"><ele>1518.5</ele><time>2014-06-09T17:14:30Z</time></trkpt>
<trkpt lat="36.070478" lon="-112.132941"><ele>1509.1</ele><time>2014-06-09T17:15:34Z</time></trkpt>
<trkpt lat="36.071157" lon="-112.132562"><ele>1501.4</ele><time>2014-06-09T17:16:38Z</time></trkpt>
<trkpt lat="36.071708" lon="-112.132120"><ele>1500.8</ele><time>2014-06-09T17:17:42Z</time></trkpt>
<trkpt lat="36.072209" lon="-112.131594"><ele>1488.6</ele><time>2014-06-09T17:18:46Z</time></trkpt>
<trkpt lat="36.072611" lon="-112.131406"><ele>1478.6</ele><time>2014-06-09T17:19:50Z</time></trkpt>
<trkpt lat="36.072898" lon="-112.130088"><ele>1468.2</ele><time>2014-06-09T17:20:54Z</time></trkpt>
<trkpt lat="36.073236" lon="-112.129318"><ele>1435.9</ele><time>2014-06-09T17:21:58Z</time></trkpt>
<trkpt lat="36.073346" lon="-112.129488"><ele>1421.9</ele><time>2014-06-09T17:23:02Z</time></trkpt>
<trkpt lat="36.073910" lon="-112.129278"><ele>1412.7</ele><time>2014-06-09T17:24:06Z</time></trkpt>
<trkpt lat="36.074381" lon="-112.129194"><ele>1398.4</ele><time>2014-06-09T17:25:10Z</time></trkpt>
<trkpt lat="36.075618" lon="-112.129390"><ele>1382.0</ele><time>2014-06-09T17:26:14Z</time></trkpt>
<trkpt lat="36.076623" lon="-112.129294"><ele>1367.0</ele><time>2014-06-09T17:27:18Z</time></trkpt>
<trkpt lat="36.076805" lon="-112.128392"><ele>1354.2</ele><time>2014-06-09T17:28:22Z</time></trkpt>
<trkpt lat="36.076992" lon="-112.128590"><ele>1351.2</ele><time>2014-06-09T17:29:26Z</time></trkpt>
<trkpt lat="36.077154" lon="-112.128726"><ele>1351.2</ele><time>2014-06-09T17:30:30Z</time></trkpt>
<trkpt lat="36.077171" lon="-112.128658"><ele>1351.2</ele><time>2014-06-09T17:31:34Z</time></trkpt>
<trkpt lat="36.077167" lon="-112.128656"><ele>1351.2</ele><time>2014-06-09T17:32:38Z</time></trkpt>
<trkpt lat="36.077082" lon="-112.128596"><ele>1350.6</ele><time>2014-06-09T17:33:42Z</time></trkpt>
<trkpt lat="36.077311" lon="-112.128532"><ele>1347.5</ele><time>2014-06-09T17:34:46Z</time></trkpt>
<trkpt lat="36.077354" lon="-112.128548"><ele>1346.9</ele><time>2014-06-09T17:35:50Z</time></trkpt>
<trkpt lat="36.077349" lon="-112.128547"><ele>1346.9</ele><time>2014-06-09T17:36:54Z</time></trkpt>
<trkpt lat="36.077352" lon="-112.128544"><ele>1346.9</ele><time>2014-06-09T17:37:58Z</time></trkpt>
<trkpt lat="36.077466" lon="-112.128542"><ele>1345.4</ele><time>2014-06-09T17:39:02Z</time></trkpt>
<trkpt lat="36.077581" lon="-112.128505"><ele>1344.2</ele><time>2014-06-09T17:40:06Z</time></trkpt>
<trkpt lat="36.077701" lon="-112.128276"><ele>1341.1</ele><time>2014-06-09T17:41:10Z</time></trkpt>
<trkpt lat="36.078127" lon="-112.127675"><ele>1340.8</ele><time>2014-06-09T17:42:14Z</time></trkpt>
<trkpt lat="36.078493" lon="-112.127251"><ele>1356.4</ele><time>2014-06-09T17:43:18Z</time></trkpt>
<trkpt lat="36.079087" lon="-112.127011"><ele>1369.5</ele><time>2014-06-09T17:44:22Z</time></trkpt>
<trkpt lat="36.079776" lon="-112.126324"><ele>1388.7</ele><time>2014-06-09T17:45:26Z</time></trkpt>
<trkpt lat="36.080319" lon="-112.125863"><ele>1399.6</ele><time>2014-06-09T17:46:30Z</time></trkpt>
<trkpt lat="36.081057" lon="-112.125526"><ele>1420.4</ele><time>2014-06-09T17:47:34Z</time></trkpt>
<trkpt lat="36.081452" lon="-112.125365"><ele>1442.6</ele><time>2014-06-09T17:48:38Z</time></trkpt>
<trkpt lat="36.081628" lon="-112.125383"><ele>1444.8</ele><time>2014-06-09T17:49:42Z</time></trkpt>
<trkpt lat="36.082071" lon="-112.125420"><ele>1433.2</ele><time>2014-06-09T17:50:46Z</time></trkpt>
<trkpt lat="36.082447" lon="-112.125412"><ele>1423.4</ele><time>2014-06-09T17:51:50Z</time></trkpt>
<trkpt lat="36.082726" lon="-112.125045"><ele>1404.5</ele><time>2014-06-09T17:52:54Z</time></trkpt>
<trkpt lat="36.083267" lon="-112.125255"><ele>1362.5</ele><time>2014-06-09T17:53:58Z</time></trkpt>
<trkpt lat="36.083504" lon="-112.125216"><ele>1330.1</ele><time>2014-06-09T17:55:02Z</time></trkpt>
<trkpt lat="36.083788" lon="-112.124747"><ele>1272.5</ele><time>2014-06-09T17:56:06Z</time></trkpt>
<trkpt lat="36.084116" lon="-112.124948"><ele>1192.4</ele><time>2014-06-09T17:57:10Z</time></trkpt>
<trkpt lat="36.084308" lon="-112.125292"><ele>1172.9</ele><time>2014-06-09T17:58:14Z</time></trkpt>
<trkpt lat="36.084808" lon="-112.125597"><ele>1151.2</ele><time>2014-06-09T17:59:18Z</time></trkpt>
<trkpt lat="36.084771" lon="-112.124898"><ele>1133.6</ele><time>2014-06-09T18:00:22Z</time></trkpt>
<trkpt lat="36.085152" lon="-112.124633"><ele>1130.5</ele><time>2014-06-09T18:01:26Z</time></trkpt>
<trkpt lat="36.085784" lon="-112.124714"><ele>1127.8</ele><time>2014-06-09T18:02:30Z</time></trkpt>
<trkpt lat="36.085990" lon="-112.124476"><ele>1132.0</ele><time>2014-06-09T18:03:34Z</time></trkpt>
<trkpt lat="36.086340" lon="-112.123980"><ele>1130.8</ele><time>2014-06-09T18:04:38Z</time></trkpt>
<trkpt lat="36.086901" lon="-112.123464"><ele>1125.9</ele><time>2014-06-09T18:05:42Z</time></trkpt>
<trkpt lat="36.087354" lon="-112.122971"><ele>1113.4</ele><time>2014-06-09T18:06:46Z</time></trkpt>
<trkpt lat="36.087787" lon="-112.122603"><ele>1106.4</ele><time>2014-06-09T18:07:50Z</time></trkpt>
<trkpt lat="36.088006" lon="-112.122454"><ele>1111.9</ele><time>2014-06-09T18:08:54Z</time></trkpt>
<trkpt lat="36.088004" lon="-112.122452"><ele>1112.5</ele><time>2014-06-09T18:09:58Z</time></trkpt>
<trkpt lat="36.088005" lon="-112.122449"><ele>1112.8</ele><time>2014-06-09T18:11:02Z</time></trkpt>
<trkpt lat="36.088351" lon="-112.122065"><ele>1115.6</ele><time>2014-06-09T18:12:06Z</time></trkpt>
<trkpt lat="36.088690" lon="-112.121811"><ele>1118.0</ele><time>2014-06-09T18:13:10Z</time></trkpt>
<trkpt lat="36.089000" lon="-112.121316"><ele>1122.0</ele><time>2014-06-09T18:14:14Z</time></trkpt>
<trkpt lat="36.089174" lon="-112.121022"><ele>1126.2</ele><time>2014-06-09T18:15:18Z</time></trkpt>
<trkpt lat="36.089565" lon="-112.120353"><ele>1136.9</ele><time>2014-06-09T18:16:22Z</time></trkpt>
<trkpt lat="36.090005" lon="-112.119664"><ele>1131.4</ele><time>2014-06-09T18:17:26Z</time></trkpt>
<trkpt lat="36.090386" lon="-112.118952"><ele>1132.0</ele><time>2014-06-09T18:18:30Z</time></trkpt>
<trkpt lat="36.090923" lon="-112.118391"><ele>1137.2</ele><time>2014-06-09T18:19:34Z</time></trkpt>
<trkpt lat="36.091459" lon="-112.117930"><ele>1139.3</ele><time>2014-06-09T18:20:38Z</time></trkpt>
<trkpt lat="36.091896" lon="-112.117541"><ele>1146.7</ele><time>2014-06-09T18:21:42Z</time></trkpt>
<trkpt lat="36.092307" lon="-112.117241"><ele>1152.4</ele><time>2014-06-09T18:22:46Z</time></trkpt>
<trkpt lat="36.092885" lon="-112.116798"><ele>1157.0</ele><time>2014-06-09T18:23:50Z</time></trkpt>
<trkpt lat="36.093189" lon="-112.116498"><ele>1152.8</ele><time>2014-06-09T18:24:54Z</time></trkpt>
<trkpt lat="36.093182" lon="-112.116509"><ele>1152.8</ele><time>2014-06-09T18:25:58Z</time></trkpt>
<trkpt lat="36.093181" lon="-112.116508"><ele>1152.8</ele><time>2014-06-09T18:27:02Z</time></trkpt>
<trkpt lat="36.093179" lon="-112.116508"><ele>1152.8</ele><time>2014-06-09T18:28:06Z</time></trkpt>
<trkpt lat="36.093179" lon="-112.116508"><ele>1152.8</ele><time>2014-06-09T18:29:10Z</time></trkpt>
<trkpt lat="36.093178" lon="-112.116507"><ele>1152.8</ele><time>2014-06-09T18:30:14Z</time></trkpt>
<trkpt lat="36.093177" lon="-112.116506"><ele>1152.8</ele><time>2014-06-09T18:31:18Z</time></trkpt>
<trkpt lat="36.093176" lon="-112.116506"><ele>1152.8</ele><time>2014-06-09T18:32:22Z</time></trkpt>
<trkpt lat="36.093175" lon="-112.116507"><ele>1152.4</ele><time>2014-06-09T18:33:26Z</time></trkpt>
<trkpt lat="36.093161" lon="-112.116502"><ele>1152.4</ele><time>2014-06-09T18:34:30Z</time></trkpt>
<trkpt lat="36.093268" lon="-112.115983"><ele>1151.5</ele><time>2014-06-09T18:35:34Z</time></trkpt>
<trkpt lat="36.093211" lon="-112.115980"><ele>1152.8</ele><time>2014-06-09T18:36:38Z</time></trkpt>
<trkpt lat="36.093237" lon="-112.115977"><ele>1153.1</ele><time>2014-06-09T18:37:42Z</time></trkpt>
<trkpt lat="36.093258" lon="-112.115988"><ele>1153.4</ele><time>2014-06-09T18:38:46Z</time></trkpt>
<trkpt lat="36.093258" lon="-112.115987"><ele>1153.4</ele><time>2014-06-09T18:39:50Z</time></trkpt>
<trkpt lat="36.093258" lon="-112.115986"><ele>1153.1</ele><time>2014-06-09T18:40:54Z</time></trkpt>
<trkpt lat="36.093268" lon="-112.116006"><ele>1153.7</ele><time>2014-06-09T18:41:58Z</time></trkpt>
<trkpt lat="36.093177" lon="-112.116072"><ele>1151.2</ele><time>2014-06-09T18:43:02Z</time></trkpt>
<trkpt lat="36.093175" lon="-112.116073"><ele>1151.2</ele><time>2014-06-09T18:44:06Z</time></trkpt>
<trkpt lat="36.093174" lon="-112.116074"><ele>1151.2</ele><time>2014-06-09T18:45:10Z</time></trkpt>
<trkpt lat="36.078123" lon="-112.127466"><ele>1187.2</ele><time>2014-06-09T19:46:05Z</time></trkpt>
<trkpt lat="36.077835" lon="-112.127826"><ele>1148.8</ele><time>2014-06-09T19:47:09Z</time></trkpt>
<trkpt lat="36.077450" lon="-112.128357"><ele>1143.0</ele><time>2014-06-09T19:48:13Z</time></trkpt>
<trkpt lat="36.076930" lon="-112.129011"><ele>1112.5</ele><time>2014-06-09T19:49:17Z</time></trkpt>
<trkpt lat="36.076561" lon="-112.128841"><ele>1119.2</ele><time>2014-06-09T19:50:21Z</time></trkpt>
<trkpt lat="36.076569" lon="-112.128801"><ele>1129.6</ele><time>2014-06-09T19:51:25Z</time></trkpt>
<trkpt lat="36.076586" lon="-112.128805"><ele>1130.8</ele><time>2014-06-09T19:52:29Z</time></trkpt>
<trkpt lat="36.076634" lon="-112.128805"><ele>1134.2</ele><time>2014-06-09T19:53:33Z</time></trkpt>
<trkpt lat="36.076709" lon="-112.128652"><ele>1143.3</ele><time>2014-06-09T19:54:37Z</time></trkpt>
<trkpt lat="36.077046" lon="-112.128771"><ele>1162.8</ele><time>2014-06-09T19:55:41Z</time></trkpt>
<trkpt lat="36.076879" lon="-112.128685"><ele>1175.6</ele><time>2014-06-09T19:56:45Z</time></trkpt>
<trkpt lat="36.077022" lon="-112.128558"><ele>1200.0</ele><time>2014-06-09T19:57:49Z</time></trkpt>
<trkpt lat="36.077146" lon="-112.128810"><ele>1202.4</ele><time>2014-06-09T19:58:53Z</time></trkpt>
<trkpt lat="36.077132" lon="-112.128788"><ele>1203.4</ele><time>2014-06-09T19:59:57Z</time></trkpt>
<trkpt lat="36.077170" lon="-112.128831"><ele>1202.4</ele><time>2014-06-09T20:01:01Z</time></trkpt>
<trkpt lat="36.077223" lon="-112.128879"><ele>1200.0</ele><time>2014-06-09T20:02:05Z</time></trkpt>
<trkpt lat="36.077254" lon="-112.128871"><ele>1197.6</ele><time>2014-06-09T20:03:09Z</time></trkpt>
<trkpt lat="36.077125" lon="-112.128770"><ele>1196.0</ele><time>2014-06-09T20:04:13Z</time></trkpt>
<trkpt lat="36.077203" lon="-112.128720"><ele>1196.0</ele><time>2014-06-09T20:05:17Z</time></trkpt>
<trkpt lat="36.077194" lon="-112.128721"><ele>1196.3</ele><time>2014-06-09T20:06:21Z</time></trkpt>
<trkpt lat="36.077165" lon="-112.128684"><ele>1196.0</ele><time>2014-06-09T20:07:25Z</time></trkpt>
<trkpt lat="36.077113" lon="-112.128566"><ele>1195.1</ele><time>2014-06-09T20:08:29Z</time></trkpt>
<trkpt lat="36.076944" lon="-112.128890"><ele>1194.5</ele><time>2014-06-09T20:09:33Z</time></trkpt>
<trkpt lat="36.076086" lon="-112.129006"><ele>1186.9</ele><time>2014-06-09T20:10:37Z</time></trkpt>
<trkpt lat="36.075337" lon="-112.129142"><ele>1150.9</ele><time>2014-06-09T20:11:41Z</time></trkpt>
<trkpt lat="36.074982" lon="-112.129490"><ele>1102.8</ele><time>2014-06-09T20:12:45Z</time></trkpt>
<trkpt lat="36.074437" lon="-112.129437"><ele>1083.0</ele><time>2014-06-09T20:13:49Z</time></trkpt>
<trkpt lat="36.074020" lon="-112.129631"><ele>1052.8</ele><time>2014-06-09T20:14:53Z</time></trkpt>
<trkpt lat="36.073781" lon="-112.129639"><ele>1023.8</ele><time>2014-06-09T20:15:57Z</time></trkpt>
<trkpt lat="36.073321" lon="-112.129679"><ele>1011.0</ele><time>2014-06-09T20:17:01Z</time></trkpt>
<trkpt lat="36.072727" lon="-112.130224"><ele>986.3</ele><time>2014-06-09T20:18:05Z</time></trkpt>
<trkpt lat="36.072399" lon="-112.130690"><ele>939.7</ele><time>2014-06-09T20:19:09Z</time></trkpt>
<trkpt lat="36.072482" lon="-112.131170"><ele>895.8</ele><time>2014-06-09T20:20:13Z</time></trkpt>
<trkpt lat="36.072082" lon="-112.131152"><ele>883.0</ele><time>2014-06-09T20:21:17Z</time></trkpt>
<trkpt lat="36.072046" lon="-112.131609"><ele>873.3</ele><time>2014-06-09T20:22:21Z</time></trkpt>
<trkpt lat="36.071559" lon="-112.132070"><ele>863.2</ele><time>2014-06-09T20:23:25Z</time></trkpt>
<trkpt lat="36.071336" lon="-112.132346"><ele>853.7</ele><time>2014-06-09T20:24:29Z</time></trkpt>
<trkpt lat="36.070960" lon="-112.132507"><ele>851.9</ele><time>2014-06-09T20:25:33Z</time></trkpt>
<trkpt lat="36.070747" lon="-112.132838"><ele>851.0</ele><time>2014-06-09T20:26:37Z</time></trkpt>
<trkpt lat="36.070411" lon="-112.133415"><ele>850.4</ele><time>2014-06-09T20:27:41Z</time></trkpt>
<trkpt lat="36.070242" lon="-112.133543"><ele>845.2</ele><time>2014-06-09T20:28:45Z</time></trkpt>
<trkpt lat="36.070175" lon="-112.133521"><ele>839.7</ele><time>2014-06-09T20:29:49Z</time></trkpt>
<trkpt lat="36.069751" lon="-112.133376"><ele>839.1</ele><time>2014-06-09T20:30:53Z</time></trkpt>
<trkpt lat="36.069455" lon="-112.133622"><ele>840.0</ele><time>2014-06-09T20:31:57Z</time></trkpt>
<trkpt lat="36.069542" lon="-112.133527"><ele>846.1</ele><time>2014-06-09T20:33:01Z</time></trkpt>
<trkpt lat="36.069592" lon="-112.132962"><ele>868.7</ele><time>2014-06-09T20:34:05Z</time></trkpt>
<trkpt lat="36.069216" lon="-112.133615"><ele>894.3</ele><time>2014-06-09T20:35:09Z</time></trkpt>
<trkpt lat="36.069285" lon="-112.133887"><ele>896.4</ele><time>2014-06-09T20:36:13Z</time></trkpt>
<trkpt lat="36.069536" lon="-112.134147"><ele>899.2</ele><time>2014-06-09T20:37:17Z</time></trkpt>
<trkpt lat="36.069538" lon="-112.134300"><ele>897.6</ele><time>2014-06-09T20:38:21Z</time></trkpt>
<trkpt lat="36.069707" lon="-112.134200"><ele>905.3</ele><time>2014-06-09T20:39:25Z</time></trkpt>
<trkpt lat="36.069808" lon="-112.133982"><ele>905.6</ele><time>2014-06-09T20:40:29Z</time></trkpt>
<trkpt lat="36.064084" lon="-112.135679"><ele>937.6</ele><time>2014-06-09T20:41:33Z</time></trkpt>
<trkpt lat="36.063515" lon="-112.136412"><ele>936.3</ele><time>2014-06-09T20:42:37Z</time></trkpt>
<trkpt lat="36.063332" lon="-112.137116"><ele>936.3</ele><time>2014-06-09T20:43:41Z</time></trkpt>
<trkpt lat="36.063003" lon="-112.137360"><ele>936.0</ele><time>2014-06-09T20:44:45Z</time></trkpt>
<trkpt lat="36.062712" lon="-112.137926"><ele>935.4</ele><time>2014-06-09T20:45:49Z</time></trkpt>
<trkpt lat="36.062622" lon="-112.138030"><ele>935.7</ele><time>2014-06-09T20:46:53Z</time></trkpt>
<trkpt lat="36.062290" lon="-112.138301"><ele>936.7</ele><time>2014-06-09T20:47:57Z</time></trkpt>
<trkpt lat="36.062747" lon="-112.138185"><ele>938.2</ele><time>2014-06-09T20:49:01Z</time></trkpt>
<trkpt lat="36.066819" lon="-112.135317"><ele>908.6</ele><time>2014-06-09T20:50:05Z</time></trkpt>
<trkpt lat="36.066819" lon="-112.135291"><ele>908.9</ele><time>2014-06-09T20:51:09Z</time></trkpt>
<trkpt lat="36.066839" lon="-112.135241"><ele>909.2</ele><time>2014-06-09T20:52:13Z</time></trkpt>
<trkpt lat="36.066790" lon="-112.135285"><ele>909.2</ele><time>2014-06-09T20:53:17Z</time></trkpt>
<trkpt lat="36.066770" lon="-112.135308"><ele>909.5</ele><time>2014-06-09T20:54:21Z</time></trkpt>
<trkpt lat="36.066771" lon="-112.135299"><ele>909.5</ele><time>2014-06-09T20:55:25Z</time></trkpt>
<trkpt lat="36.066771" lon="-112.135292"><ele>909.5</ele><time>2014-06-09T20:56:29Z</time></trkpt>
<trkpt lat="36.066769" lon="-112.135287"><ele>909.5</ele><time>2014-06-09T20:57:33Z</time></trkpt>
<trkpt lat="36.066760" lon="-112.135292"><ele>909.5</ele><time>2014-06-09T20:58:37Z</time></trkpt>
<trkpt lat="36.066728" lon="-112.135305"><ele>909.5</ele><time>2014-06-09T20:59:41Z</time></trkpt>
<trkpt lat="36.066751" lon="-112.135250"><ele>912.0</ele><time>2014-06-09T21:00:45Z</time></trkpt>
<trkpt lat="36.066453" lon="-112.135443"><ele>912.0</ele><time>2014-06-09T21:01:49Z</time></trkpt>
<trkpt lat="36.066461" lon="-112.135482"><ele>910.1</ele><time>2014-06-09T21:02:53Z</time></trkpt>
<trkpt lat="36.066458" lon="-112.135955"><ele>910.7</ele><time>2014-06-09T21:03:57Z</time></trkpt>
<trkpt lat="36.065784" lon="-112.137686"><ele>1219.5</ele><time>2014-06-09T21:05:01Z</time></trkpt>
<trkpt lat="36.065657" lon="-112.137876"><ele>1221.9</ele><time>2014-06-09T21:06:05Z</time></trkpt>
<trkpt lat="36.065300" lon="-112.137979"><ele>1228.0</ele><time>2014-06-09T21:07:09Z</time></trkpt>
<trkpt lat="36.064360" lon="-112.137999"><ele>1244.2</ele><time>2014-06-09T21:08:13Z</time></trkpt>
<trkpt lat="36.064177" lon="-112.138087"><ele>1252.4</ele><time>2014-06-09T21:09:17Z</time></trkpt>
<trkpt lat="36.064236" lon="-112.137652"><ele>1264.6</ele><time>2014-06-09T21:10:21Z</time></trkpt>
<trkpt lat="36.064792" lon="-112.137644"><ele>1271.0</ele><time>2014-06-09T21:11:25Z</time></trkpt>
<trkpt lat="36.064833" lon="-112.137554"><ele>1272.8</ele><time>2014-06-09T21:12:29Z</time></trkpt>
<trkpt lat="36.065212" lon="-112.136962"><ele>1273.1</ele><time>2014-06-09T21:13:33Z</time></trkpt>
<trkpt lat="36.065115" lon="-112.136784"><ele>1272.8</ele><time>2014-06-09T21:14:37Z</time></trkpt>
<trkpt lat="36.065146" lon="-112.136908"><ele>1271.9</ele><time>2014-06-09T21:15:41Z</time></trkpt>
<trkpt lat="36.065284" lon="-112.136692"><ele>1279.6</ele><time>2014-06-09T21:16:45Z</time></trkpt>
<trkpt lat="36.065720" lon="-112.136287"><ele>1290.2</ele><time>2014-06-09T21:17:49Z</time></trkpt>
<trkpt lat="36.065683" lon="-112.136136"><ele>1300.9</ele><time>2014-06-09T21:18:53Z</time></trkpt>
<trkpt lat="36.065886" lon="-112.136083"><ele>1304.5</ele><time>2014-06-09T21:19:57Z</time></trkpt>
<trkpt lat="36.065835" lon="-112.136137"><ele>1304.8</ele><time>2014-06-09T21:21:01Z</time></trkpt>
<trkpt lat="36.065829" lon="-112.136335"><ele>1305.2</ele><time>2014-06-09T21:22:05Z</time></trkpt>
<trkpt lat="36.065846" lon="-112.136540"><ele>1306.4</ele><time>2014-06-09T21:23:09Z</time></trkpt>
<trkpt lat="36.065849" lon="-112.136494"><ele>1306.4</ele><time>2014-06-09T21:24:13Z</time></trkpt>
<trkpt lat="36.065623" lon="-112.136186"><ele>1306.7</ele><time>2014-06-09T21:25:17Z</time></trkpt>
<trkpt lat="36.065575" lon="-112.136243"><ele>1307.3</ele><time>2014-06-09T21:26:21Z</time></trkpt>
<trkpt lat="36.065589" lon="-112.136257"><ele>1308.2</ele><time>2014-06-09T21:27:25Z</time></trkpt>
<trkpt lat="36.065883" lon="-112.136206"><ele>1311.6</ele><time>2014-06-09T21:28:29Z</time></trkpt>
<trkpt lat="36.065869" lon="-112.136056"><ele>1314.9</ele><time>2014-06-09T21:29:33Z</time></trkpt>
<trkpt lat="36.065796" lon="-112.136447"><ele>1320.4</ele><time>2014-06-09T21:30:37Z</time></trkpt>
<trkpt lat="36.065809" lon="-112.136523"><ele>1323.1</ele><time>2014-06-09T21:31:41Z</time></trkpt>
<trkpt lat="36.065805" lon="-112.136513"><ele>1323.1</ele><time>2014-06-09T21:32:45Z</time></trkpt>
<trkpt lat="36.065803" lon="-112.136511"><ele>1323.1</ele><time>2014-06-09T21:33:49Z</time></trkpt>
<trkpt lat="36.065801" lon="-112.136511"><ele>1323.1</ele><time>2014-06-09T21:34:53Z</time></trkpt>
<trkpt lat="36.065800" lon="-112.136513"><ele>1323.1</ele><time>2014-06-09T21:35:57Z</time></trkpt>
<trkpt lat="36.065801" lon="-112.136508"><ele>1323.1</ele><time>2014-06-09T21:37:01Z</time></trkpt>
<trkpt lat="36.065796" lon="-112.136505"><ele>1323.1</ele><time>2014-06-09T21:38:05Z</time></trkpt>
<trkpt lat="36.065804" lon="-112.136509"><ele>1323.4</ele><time>2014-06-09T21:39:09Z</time></trkpt>
<trkpt lat="36.065826" lon="-112.136509"><ele>1324.4</ele><time>2014-06-09T21:40:13Z</time></trkpt>
<trkpt lat="36.065824" lon="-112.136500"><ele>1324.7</ele><time>2014-06-09T21:41:17Z</time></trkpt>
<trkpt lat="36.065820" lon="-112.136486"><ele>1325.3</ele><time>2014-06-09T21:42:21Z</time></trkpt>
<trkpt lat="36.065816" lon="-112.136466"><ele>1325.3</ele><time>2014-06-09T21:43:25Z</time></trkpt>
<trkpt lat="36.065806" lon="-112.136446"><ele>1325.6</ele><time>2014-06-09T21:44:29Z</time></trkpt>
<trkpt lat="36.065674" lon="-112.136008"><ele>1335.6</ele><time>2014-06-09T21:45:33Z</time></trkpt>
<trkpt lat="36.065591" lon="-112.136128"><ele>1368.6</ele><time>2014-06-09T21:46:37Z</time></trkpt>
<trkpt lat="36.065429" lon="-112.136132"><ele>1368.6</ele><time>2014-06-09T21:47:41Z</time></trkpt>
<trkpt lat="36.065481" lon="-112.136127"><ele>1367.6</ele><time>2014-06-09T21:48:45Z</time></trkpt>
<trkpt lat="36.065464" lon="-112.136109"><ele>1368.9</ele><time>2014-06-09T21:49:49Z</time></trkpt>
<trkpt lat="36.065265" lon="-112.136307"><ele>1369.5</ele><time>2014-06-09T21:50:53Z</time></trkpt>
<trkpt lat="36.065258" lon="-112.136328"><ele>1371.0</ele><time>2014-06-09T21:51:57Z</time></trkpt>
<trkpt lat="36.064552" lon="-112.136435"><ele>1375.0</ele><time>2014-06-09T21:53:01Z</time></trkpt>
<trkpt lat="36.064022" lon="-112.136715"><ele>1353.3</ele><time>2014-06-09T21:54:05Z</time></trkpt>
<trkpt lat="36.064396" lon="-112.137104"><ele>1348.1</ele><time>2014-06-09T21:55:09Z</time></trkpt>
<trkpt lat="36.064257" lon="-112.137472"><ele>1354.8</ele><time>2014-06-09T21:56:13Z</time></trkpt>
<trkpt lat="36.064155" lon="-112.137936"><ele>1346.9</ele><time>2014-06-09T21:57:17Z</time></trkpt>
<trkpt lat="36.063975" lon="-112.138071"><ele>1335.9</ele><time>2014-06-09T21:58:21Z</time></trkpt>
<trkpt lat="36.063862" lon="-112.138391"><ele>1338.1</ele><time>2014-06-09T21:59:25Z</time></trkpt>
<trkpt lat="36.063692" lon="-112.138077"><ele>1345.7</ele><time>2014-06-09T22:00:29Z</time></trkpt>
<trkpt lat="36.063646" lon="-112.138110"><ele>1346.0</ele><time>2014-06-09T22:01:33Z</time></trkpt>
<trkpt lat="36.063477" lon="-112.138436"><ele>1353.0</ele><time>2014-06-09T22:02:37Z</time></trkpt>
<trkpt lat="36.063650" lon="-112.138881"><ele>1356.7</ele><time>2014-06-09T22:03:41Z</time></trkpt>
<trkpt lat="36.063686" lon="-112.139505"><ele>1363.7</ele><time>2014-06-09T22:04:45Z</time></trkpt>
<trkpt lat="36.063586" lon="-112.139522"><ele>1365.5</ele><time>2014-06-09T22:05:49Z</time></trkpt>
<trkpt lat="36.063898" lon="-112.140149"><ele>1367.9</ele><time>2014-06-09T22:06:53Z</time></trkpt>
<trkpt lat="36.063843" lon="-112.139900"><ele>1371.0</ele><time>2014-06-09T22:07:57Z</time></trkpt>
<trkpt lat="36.063580" lon="-112.139836"><ele>1377.4</ele><time>2014-06-09T22:09:01Z</time></trkpt>
<trkpt lat="36.063562" lon="-112.138894"><ele>1397.8</ele><time>2014-06-09T22:10:05Z</time></trkpt>
<trkpt lat="36.063740" lon="-112.138540"><ele>1418.8</ele><time>2014-06-09T22:11:09Z</time></trkpt>
<trkpt lat="36.063903" lon="-112.138301"><ele>1449.9</ele><time>2014-06-09T22:12:13Z</time></trkpt>
<trkpt lat="36.063706" lon="-112.138679"><ele>1479.5</ele><time>2014-06-09T22:13:17Z</time></trkpt>
<trkpt lat="36.063311" lon="-112.138976"><ele>1490.8</ele><time>2014-06-09T22:14:21Z</time></trkpt>
<trkpt lat="36.062916" lon="-112.138888"><ele>1494.7</ele><time>2014-06-09T22:15:25Z</time></trkpt>
<trkpt lat="36.063010" lon="-112.139174"><ele>1495.0</ele><time>2014-06-09T22:16:29Z</time></trkpt>
<trkpt lat="36.063182" lon="-112.139292"><ele>1498.7</ele><time>2014-06-09T22:17:33Z</time></trkpt>
<trkpt lat="36.063341" lon="-112.139511"><ele>1503.0</ele><time>2014-06-09T22:18:37Z</time></trkpt>
<trkpt lat="36.063106" lon="-112.139522"><ele>1516.7</ele><time>2014-06-09T22:19:41Z</time></trkpt>
<trkpt lat="36.063148" lon="-112.139904"><ele>1525.8</ele><time>2014-06-09T22:20:45Z</time></trkpt>
<trkpt lat="36.062950" lon="-112.140448"><ele>1526.4</ele><time>2014-06-09T22:21:49Z</time></trkpt>
<trkpt lat="36.062940" lon="-112.140491"><ele>1526.1</ele><time>2014-06-09T22:22:53Z</time></trkpt>
<trkpt lat="36.062794" lon="-112.140292"><ele>1526.4</ele><time>2014-06-09T22:23:57Z</time></trkpt>
<trkpt lat="36.062794" lon="-112.140320"><ele>1526.4</ele><time>2014-06-09T22:25:01Z</time></trkpt>
<trkpt lat="36.062893" lon="-112.140499"><ele>1526.4</ele><time>2014-06-09T22:26:05Z</time></trkpt>
<trkpt lat="36.062900" lon="-112.140520"><ele>1527.4</ele><time>2014-06-09T22:27:09Z</time></trkpt>
<trkpt lat="36.062905" lon="-112.140518"><ele>1527.7</ele><time>2014-06-09T22:28:13Z</time></trkpt>
<trkpt lat="36.062908" lon="-112.140516"><ele>1528.0</ele><time>2014-06-09T22:29:17Z</time></trkpt>
<trkpt lat="36.062910" lon="-112.140274"><ele>1533.1</ele><time>2014-06-09T22:30:21Z</time></trkpt>
<trkpt lat="36.062794" lon="-112.140006"><ele>1545.9</ele><time>2014-06-09T22:31:25Z</time></trkpt>
<trkpt lat="36.062882" lon="-112.140036"><ele>1553.6</ele><time>2014-06-09T22:32:29Z</time></trkpt>
<trkpt lat="36.062834" lon="-112.140262"><ele>1561.2</ele><time>2014-06-09T22:33:33Z</time></trkpt>
<trkpt lat="36.062977" lon="-112.140647"><ele>1567.9</ele><time>2014-06-09T22:34:37Z</time></trkpt>
<trkpt lat="36.062886" lon="-112.140568"><ele>1570.0</ele><time>2014-06-09T22:35:41Z</time></trkpt>
<trkpt lat="36.062891" lon="-112.140563"><ele>1570.3</ele><time>2014-06-09T22:36:45Z</time></trkpt>
<trkpt lat="36.062887" lon="-112.140561"><ele>1570.6</ele><time>2014-06-09T22:37:49Z</time></trkpt>
<trkpt lat="36.062848" lon="-112.140518"><ele>1570.9</ele><time>2014-06-09T22:38:53Z</time></trkpt>
<trkpt lat="36.062477" lon="-112.139928"><ele>1574.0</ele><time>2014-06-09T22:39:57Z</time></trkpt>
<trkpt lat="36.062404" lon="-112.140359"><ele>1573.7</ele><time>2014-06-09T22:41:01Z</time></trkpt>
<trkpt lat="36.062104" lon="-112.140784"><ele>1573.7</ele><time>2014-06-09T22:42:05Z</time></trkpt>
<trkpt lat="36.062003" lon="-112.140459"><ele>1572.8</ele><time>2014-06-09T22:43:09Z</time></trkpt>
<trkpt lat="36.061737" lon="-112.139906"><ele>1577.6</ele><time>2014-06-09T22:44:13Z</time></trkpt>
<trkpt lat="36.061754" lon="-112.139667"><ele>1580.7</ele><time>2014-06-09T22:45:17Z</time></trkpt>
<trkpt lat="36.061668" lon="-112.139496"><ele>1582.8</ele><time>2014-06-09T22:46:21Z</time></trkpt>
<trkpt lat="36.061669" lon="-112.139498"><ele>1582.8</ele><time>2014-06-09T22:47:25Z</time></trkpt>
<trkpt lat="36.061666" lon="-112.139497"><ele>1582.8</ele><time>2014-06-09T22:48:29Z</time></trkpt>
<trkpt lat="36.061374" lon="-112.140143"><ele>1582.8</ele><time>2014-06-09T22:49:33Z</time></trkpt>
<trkpt lat="36.061109" lon="-112.140696"><ele>1581.3</ele><time>2014-06-09T22:50:37Z</time></trkpt>
<trkpt lat="36.061164" lon="-112.140987"><ele>1579.8</ele><time>2014-06-09T22:51:41Z</time></trkpt>
<trkpt lat="36.061211" lon="-112.141058"><ele>1578.9</ele><time>2014-06-09T22:52:45Z</time></trkpt>
<trkpt lat="36.060961" lon="-112.141414"><ele>1578.6</ele><time>2014-06-09T22:53:49Z</time></trkpt>
<trkpt lat="36.060955" lon="-112.141934"><ele>1577.3</ele><time>2014-06-09T22:54:53Z</time></trkpt>
<trkpt lat="36.061330" lon="-112.142174"><ele>1577.6</ele><time>2014-06-09T22:55:57Z</time></trkpt>
<trkpt lat="36.061710" lon="-112.142266"><ele>1578.6</ele><time>2014-06-09T22:57:01Z</time></trkpt>
<trkpt lat="36.062048" lon="-112.142630"><ele>1578.9</ele><time>2014-06-09T22:58:05Z</time></trkpt>
<trkpt lat="36.061904" lon="-112.142658"><ele>1579.8</ele><time>2014-06-09T22:59:09Z</time></trkpt>
<trkpt lat="36.061467" lon="-112.142624"><ele>1579.5</ele><time>2014-06-09T23:00:13Z</time></trkpt>
<trkpt lat="36.061028" lon="-112.142812"><ele>1579.2</ele><time>2014-06-09T23:01:17Z</time></trkpt>
<trkpt lat="36.060668" lon="-112.143184"><ele>1579.5</ele><time>2014-06-09T23:02:21Z</time></trkpt>
<trkpt lat="36.060509" lon="-112.143278"><ele>1579.5</ele><time>2014-06-09T23:03:25Z</time></trkpt>
<trkpt lat="36.060483" lon="-112.143284"><ele>1579.8</ele><time>2014-06-09T23:04:29Z</time></trkpt>
<trkpt lat="36.060480" lon="-112.143306"><ele>1579.8</ele><time>2014-06-09T23:05:33Z</time></trkpt>
<trkpt lat="36.060305" lon="-112.143139"><ele>1579.5</ele><time>2014-06-09T23:06:37Z</time></trkpt>
<trkpt lat="36.060284" lon="-112.142726"><ele>1579.8</ele><time>2014-06-09T23:07:41Z</time></trkpt>
<trkpt lat="36.060173" lon="-112.142494"><ele>1579.5</ele><time>2014-06-09T23:08:45Z</time></trkpt>
<trkpt lat="36.060235" lon="-112.142097"><ele>1579.8</ele><time>2014-06-09T23:09:49Z</time></trkpt>
<trkpt lat="36.060344" lon="-112.141690"><ele>1579.8</ele><time>2014-06-09T23:10:53Z</time></trkpt>
<trkpt lat="36.060331" lon="-112.141642"><ele>1580.1</ele><time>2014-06-09T23:11:57Z</time></trkpt>
<trkpt lat="36.060343" lon="-112.141698"><ele>1579.5</ele><time>2014-06-09T23:13:01Z</time></trkpt>
<trkpt lat="36.060049" lon="-112.141342"><ele>1579.5</ele><time>2014-06-09T23:14:05Z</time></trkpt>
<trkpt lat="36.060097" lon="-112.140923"><ele>1579.8</ele><time>2014-06-09T23:15:09Z</time></trkpt>
<trkpt lat="36.060044" lon="-112.140490"><ele>1579.8</ele><time>2014-06-09T23:16:13Z</time></trkpt>
<trkpt lat="36.060072" lon="-112.140518"><ele>1580.4</ele><time>2014-06-09T23:17:17Z</time></trkpt>
<trkpt lat="36.060071" lon="-112.140518"><ele>1580.7</ele><time>2014-06-09T23:18:21Z</time></trkpt>
<trkpt lat="36.060068" lon="-112.140526"><ele>1580.7</ele><time>2014-06-09T23:19:25Z</time></trkpt>
<trkpt lat="36.060067" lon="-112.140528"><ele>1580.7</ele><time>2014-06-09T23:20:29Z</time></trkpt>
<trkpt lat="36.059831" lon="-112.140600"><ele>1576.1</ele><time>2014-06-09T23:21:33Z</time></trkpt>
<trkpt lat="36.059344" lon="-112.140469"><ele>1575.8</ele><time>2014-06-09T23:22:37Z</time></trkpt>
<trkpt lat="36.059265" lon="-112.140291"><ele>1579.2</ele><time>2014-06-09T23:23:41Z</time></trkpt>
<trkpt lat="36.058967" lon="-112.140647"><ele>1578.6</ele><time>2014-06-09T23:24:45Z</time></trkpt>
<trkpt lat="36.059270" lon="-112.141279"><ele>1558.4</ele><time>2014-06-09T23:25:49Z</time></trkpt>
<trkpt lat="36.058933" lon="-112.141760"><ele>1556.3</ele><time>2014-06-09T23:26:53Z</time></trkpt>
<trkpt lat="36.058216" lon="-112.142042"><ele>1532.5</ele><time>2014-06-09T23:27:57Z</time></trkpt>
<trkpt lat="36.058131" lon="-112.142202"><ele>1535.0</ele><time>2014-06-09T23:29:01Z</time></trkpt>
<trkpt lat="36.057873" lon="-112.142597"><ele>1535.3</ele><time>2014-06-09T23:30:05Z</time></trkpt>
<trkpt lat="36.057497" lon="-112.142839"><ele>1536.8</ele><time>2014-06-09T23:31:09Z</time></trkpt>
<trkpt lat="36.056700" lon="-112.143281"><ele>1521.9</ele><time>2014-06-09T23:32:13Z</time></trkpt>
<trkpt lat="36.056157" lon="-112.143502"><ele>1493.2</ele><time>2014-06-09T23:33:17Z</time></trkpt>
<trkpt lat="36.055675" lon="-112.144047"><ele>1494.4</ele><time>2014-06-09T23:34:21Z</time></trkpt>
<trkpt lat="36.054295" lon="-112.142641"><ele>1495.7</ele><time>2014-06-09T23:35:25Z</time></trkpt>
<trkpt lat="36.053895" lon="-112.142880"><ele>1496.9</ele><time>2014-06-09T23:36:29Z</time></trkpt>
<trkpt lat="36.053599" lon="-112.142735"><ele>1498.4</ele><time>2014-06-09T23:37:33Z</time></trkpt>
<trkpt lat="36.053788" lon="-112.142725"><ele>1500.2</ele><time>2014-06-09T23:38:37Z</time></trkpt>
<trkpt lat="36.053743" lon="-112.143129"><ele>1503.0</ele><time>2014-06-09T23:39:41Z</time></trkpt>
<trkpt lat="36.053915" lon="-112.143466"><ele>1502.1</ele><time>2014-06-09T23:40:45Z</time></trkpt>
<trkpt lat="36.057117" lon="-112.148864"><ele>1503.3</ele><time>2014-06-09T23:41:49Z</time></trkpt>
<trkpt lat="36.056843" lon="-112.148798"><ele>1503.3</ele><time>2014-06-09T23:42:53Z</time></trkpt>
<trkpt lat="36.056792" lon="-112.149073"><ele>1504.5</ele><time>2014-06-09T23:43:57Z</time></trkpt>
<trkpt lat="36.056880" lon="-112.149605"><ele>1504.8</ele><time>2014-06-09T23:45:01Z</time></trkpt>
<trkpt lat="36.056811" lon="-112.149823"><ele>1503.9</ele><time>2014-06-09T23:46:05Z</time></trkpt>
<trkpt lat="36.056414" lon="-112.150147"><ele>1504.2</ele><time>2014-06-09T23:47:09Z</time></trkpt>
<trkpt lat="36.056520" lon="-112.150512"><ele>1505.4</ele><time>2014-06-09T23:48:13Z</time></trkpt>
<trkpt lat="36.056510" lon="-112.150704"><ele>1509.1</ele><time>2014-06-09T23:49:17Z</time></trkpt>
<trkpt lat="36.056557" lon="-112.150969"><ele>1514.2</ele><time>2014-06-09T23:50:21Z</time></trkpt>
<trkpt lat="36.056399" lon="-112.151004"><ele>1514.2</ele><time>2014-06-09T23:51:25Z</time></trkpt>
<trkpt lat="36.056364" lon="-112.151130"><ele>1514.2</ele><time>2014-06-09T23:52:29Z</time></trkpt>
<trkpt lat="36.056136" lon="-112.151262"><ele>1514.6</ele><time>2014-06-09T23:53:33Z</time></trkpt>
<trkpt lat="36.059726" lon="-112.147367"><ele>1613.3</ele><time>2014-06-09T23:54:37Z</time></trkpt>
<trkpt lat="36.059448" lon="-112.147285"><ele>1613.6</ele><time>2014-06-09T23:55:41Z</time></trkpt>
<trkpt lat="36.059248" lon="-112.146754"><ele>1611.5</ele><time>2014-06-09T23:56:45Z</time></trkpt>
<trkpt lat="36.059381" lon="-112.147358"><ele>1610.9</ele><time>2014-06-09T23:57:49Z</time></trkpt>
<trkpt lat="36.059304" lon="-112.147960"><ele>1613.0</ele><time>2014-06-09T23:58:53Z</time></trkpt>
<trkpt lat="36.059116" lon="-112.147656"><ele>1612.7</ele><time>2014-06-09T23:59:57Z</time></trkpt>
<trkpt lat="36.059469" lon="-112.147887"><ele>1612.7</ele><time>2014-06-10T00:01:01Z</time></trkpt>
<trkpt lat="36.058839" lon="-112.144876"><ele>1613.0</ele><time>2014-06-10T00:02:05Z</time></trkpt>
<trkpt lat="36.058859" lon="-112.144701"><ele>1613.6</ele><time>2014-06-10T00:03:09Z</time></trkpt>
<trkpt lat="36.059000" lon="-112.144562"><ele>1613.0</ele><time>2014-06-10T00:04:13Z</time></trkpt>
<trkpt lat="36.059130" lon="-112.144341"><ele>1613.3</ele><time>2014-06-10T00:05:17Z</time></trkpt>
<trkpt lat="36.059114" lon="-112.143981"><ele>1613.3</ele><time>2014-06-10T00:06:21Z</time></trkpt>
<trkpt lat="36.059076" lon="-112.143976"><ele>1613.0</ele><time>2014-06-10T00:07:25Z</time></trkpt>
<trkpt lat="36.058971" lon="-112.143935"><ele>1613.3</ele><time>2014-06-10T00:08:29Z</time></trkpt>
<trkpt lat="36.059002" lon="-112.144417"><ele>1613.3</ele><time>2014-06-10T00:09:33Z</time></trkpt>
<trkpt lat="36.058895" lon="-112.144803"><ele>1613.0</ele><time>2014-06-10T00:10:37Z</time></trkpt>
<trkpt lat="36.058863" lon="-112.145048"><ele>1612.7</ele><time>2014-06-10T00:11:41Z</time></trkpt>
<trkpt lat="36.058619" lon="-112.145309"><ele>1612.4</ele><time>2014-06-10T00:12:45Z</time></trkpt>
<trkpt lat="36.058378" lon="-112.145528"><ele>1611.8</ele><time>2014-06-10T00:13:49Z</time></trkpt>
<trkpt lat="36.058386" lon="-112.145555"><ele>1611.2</ele><time>2014-06-10T00:14:53Z</time></trkpt>
<trkpt lat="36.058414" lon="-112.145552"><ele>1611.2</ele><time>2014-06-10T00:15:57Z</time></trkpt>
<trkpt lat="36.058381" lon="-112.145576"><ele>1611.5</ele><time>2014-06-10T00:17:01Z</time></trkpt>
<trkpt lat="36.058365" lon="-112.145596"><ele>1611.8</ele><time>2014-06-10T00:18:05Z</time></trkpt>
<trkpt lat="36.058122" lon="-112.145716"><ele>1612.4</ele><time>2014-06-10T00:19:09Z</time></trkpt>
<trkpt lat="36.057946" lon="-112.145911"><ele>1612.4</ele><time>2014-06-10T00:20:13Z</time></trkpt>
<trkpt lat="36.057841" lon="-112.146031"><ele>1611.2</ele><time>2014-06-10T00:21:17Z</time></trkpt>
<trkpt lat="36.057892" lon="-112.146053"><ele>1610.3</ele><time>2014-06-10T00:22:21Z</time></trkpt>
<trkpt lat="36.057860" lon="-112.146041"><ele>1609.3</ele><time>2014-06-10T00:23:25Z</time></trkpt>
<trkpt lat="36.057878" lon="-112.146091"><ele>1609.3</ele><time>2014-06-10T00:24:29Z</time></trkpt>
<trkpt lat="36.057702" lon="-112.146512"><ele>1609.6</ele><time>2014-06-10T00:25:33Z</time></trkpt>
<trkpt lat="36.057576" lon="-112.146873"><ele>1609.0</ele><time>2014-06-10T00:26:37Z</time></trkpt>
<trkpt lat="36.057325" lon="-112.147284"><ele>1608.7</ele><time>2014-06-10T00:27:41Z</time></trkpt>
<trkpt lat="36.057341" lon="-112.147471"><ele>1608.1</ele><time>2014-06-10T00:28:45Z</time></trkpt>
<trkpt lat="36.057246" lon="-112.147800"><ele>1606.6</ele><time>2014-06-10T00:29:49Z</time></trkpt>
<trkpt lat="36.057215" lon="-112.148044"><ele>1606.6</ele><time>2014-06-10T00:30:53Z</time></trkpt>
<trkpt lat="36.057587" lon="-112.148306"><ele>1606.9</ele><time>2014-06-10T00:31:57Z</time></trkpt>
<trkpt lat="36.057998" lon="-112.148422"><ele>1608.7</ele><time>2014-06-10T00:33:01Z</time></trkpt>
<trkpt lat="36.057623" lon="-112.148669"><ele>1611.2</ele><time>2014-06-10T00:34:05Z</time></trkpt>
<trkpt lat="36.057400" lon="-112.148868"><ele>1612.7</ele><time>2014-06-10T00:35:09Z</time></trkpt>
<trkpt lat="36.056926" lon="-112.148967"><ele>1612.4</ele><time>2014-06-10T00:36:13Z</time></trkpt>
<trkpt lat="36.057085" lon="-112.149418"><ele>1612.1</ele><time>2014-06-10T00:37:17Z</time></trkpt>
<trkpt lat="36.057248" lon="-112.149541"><ele>1612.1</ele><time>2014-06-10T00:38:21Z</time></trkpt>
<trkpt lat="36.057338" lon="-112.149327"><ele>1612.7</ele><time>2014-06-10T00:39:25Z</time></trkpt>
<trkpt lat="36.057484" lon="-112.149603"><ele>1613.3</ele><time>2014-06-10T00:40:29Z</time></trkpt>
<trkpt lat="36.055123" lon="-112.144889"><ele>1612.1</ele><time>2014-06-10T00:41:33Z</time></trkpt>
<trkpt lat="36.054767" lon="-112.144516"><ele>1612.4</ele><time>2014-06-10T00:42:37Z</time></trkpt>
<trkpt lat="36.054706" lon="-112.144129"><ele>1613.3</ele><time>2014-06-10T00:43:41Z</time></trkpt>
<trkpt lat="36.054745" lon="-112.144036"><ele>1613.3</ele><time>2014-06-10T00:44:45Z</time></trkpt>
<trkpt lat="36.054717" lon="-112.143484"><ele>1613.3</ele><time>2014-06-10T00:45:49Z</time></trkpt>
<trkpt lat="36.054994" lon="-112.143333"><ele>1621.8</ele><time>2014-06-10T00:46:53Z</time></trkpt>
<trkpt lat="36.054949" lon="-112.143107"><ele>1625.8</ele><time>2014-06-10T00:47:57Z</time></trkpt>
<trkpt lat="36.054920" lon="-112.143129"><ele>1625.5</ele><time>2014-06-10T00:49:01Z</time></trkpt>
<trkpt lat="36.054959" lon="-112.143196"><ele>1625.5</ele><time>2014-06-10T00:50:05Z</time></trkpt>
<trkpt lat="36.054880" lon="-112.143290"><ele>1625.2</ele><time>2014-06-10T00:51:09Z</time></trkpt>
<trkpt lat="36.054657" lon="-112.143377"><ele>1625.2</ele><time>2014-06-10T00:52:13Z</time></trkpt>
<trkpt lat="36.054498" lon="-112.142907"><ele>1629.2</ele><time>2014-06-10T00:53:17Z</time></trkpt>
<trkpt lat="36.054324" lon="-112.142451"><ele>1630.7</ele><time>2014-06-10T00:54:21Z</time></trkpt>
<trkpt lat="36.054016" lon="-112.142188"><ele>1630.4</ele><time>2014-06-10T00:55:25Z</time></trkpt>
<trkpt lat="36.053639" lon="-112.142271"><ele>1630.4</ele><time>2014-06-10T00:56:29Z</time></trkpt>
<trkpt lat="36.053011" lon="-112.142396"><ele>1630.1</ele><time>2014-06-10T00:57:33Z</time></trkpt>
<trkpt lat="36.052815" lon="-112.142686"><ele>1630.1</ele><time>2014-06-10T00:58:37Z</time></trkpt>
</trkseg></trk>
</gpx>